sensor_id;sensor_type;location;lat;lon;timestamp;temperature;humidity
21259;DHT22;10787;53.364;-1.480;2023-07-13T00:02:07;14.00;1.00
21259;DHT22;10787;53.364;-1.480;2023-07-13T00:04:51;14.00;1.00
21259;DHT22;10787;53.364;-1.480;2023-07-13T00:07:36;13.90;1.00
21259;DHT22;10787;53.364;-1.480;2023-07-13T00:10:20;13.90;1.00
21259;DHT22;10787;53.364;-1.480;2023-07-13T00:13:05;13.90;1.00
21259;DHT22;10787;53.364;-1.480;2023-07-13T00:15:49;13.90;1.00
21259;DHT22;10787;53.364;-1.480;2023-07-13T00:18:33;13.90;1.00
21259;DHT22;10787;53.364;-1.480;2023-07-13T00:21:17;13.90;1.00
21259;DHT22;10787;53.364;-1.480;2023-07-13T00:24:01;13.90;1.00
21259;DHT22;10787;53.364;-1.480;2023-07-13T00:26:46;13.90;1.00
21259;DHT22;10787;53.364;-1.480;2023-07-13T00:29:30;13.90;1.00
21259;DHT22;10787;53.364;-1.480;2023-07-13T00:32:18;14.00;1.00
21259;DHT22;10787;53.364;-1.480;2023-07-13T00:35:02;14.00;1.00
21259;DHT22;10787;53.364;-1.480;2023-07-13T00:37:48;14.00;1.00
21259;DHT22;10787;53.364;-1.480;2023-07-13T00:40:33;14.00;1.00
21259;DHT22;10787;53.364;-1.480;2023-07-13T00:43:20;14.10;1.00
21259;DHT22;10787;53.364;-1.480;2023-07-13T00:46:43;14.20;1.00
21259;DHT22;10787;53.364;-1.480;2023-07-13T00:49:30;14.30;1.00
21259;DHT22;10787;53.364;-1.480;2023-07-13T00:52:15;14.40;1.00
21259;DHT22;10787;53.364;-1.480;2023-07-13T00:54:59;14.40;1.00
21259;DHT22;10787;53.364;-1.480;2023-07-13T00:57:44;14.50;1.00
21259;DHT22;10787;53.364;-1.480;2023-07-13T01:00:29;14.50;1.00
21259;DHT22;10787;53.364;-1.480;2023-07-13T01:03:15;14.50;1.00
21259;DHT22;10787;53.364;-1.480;2023-07-13T01:05:59;14.50;1.00
21259;DHT22;10787;53.364;-1.480;2023-07-13T01:08:44;14.50;1.00
21259;DHT22;10787;53.364;-1.480;2023-07-13T01:11:28;14.50;1.00
21259;DHT22;10787;53.364;-1.480;2023-07-13T01:14:13;14.40;1.00
21259;DHT22;10787;53.364;-1.480;2023-07-13T01:16:58;14.30;1.00
21259;DHT22;10787;53.364;-1.480;2023-07-13T01:19:45;14.30;1.00
21259;DHT22;10787;53.364;-1.480;2023-07-13T01:22:29;14.30;1.00
21259;DHT22;10787;53.364;-1.480;2023-07-13T01:25:15;14.30;1.00
21259;DHT22;10787;53.364;-1.480;2023-07-13T01:27:59;14.40;1.00
21259;DHT22;10787;53.364;-1.480;2023-07-13T01:30:44;14.40;1.00
21259;DHT22;10787;53.364;-1.480;2023-07-13T01:33:29;14.40;1.00
21259;DHT22;10787;53.364;-1.480;2023-07-13T01:36:14;14.40;1.00
21259;DHT22;10787;53.364;-1.480;2023-07-13T01:38:58;14.40;1.00
21259;DHT22;10787;53.364;-1.480;2023-07-13T01:41:42;14.40;1.00
21259;DHT22;10787;53.364;-1.480;2023-07-13T01:44:27;14.40;1.00
21259;DHT22;10787;53.364;-1.480;2023-07-13T01:47:11;14.40;1.00
21259;DHT22;10787;53.364;-1.480;2023-07-13T01:49:55;14.40;1.00
21259;DHT22;10787;53.364;-1.480;2023-07-13T01:52:39;14.40;99.90
21259;DHT22;10787;53.364;-1.480;2023-07-13T01:55:23;14.30;1.00
21259;DHT22;10787;53.364;-1.480;2023-07-13T01:58:08;14.30;1.00
21259;DHT22;10787;53.364;-1.480;2023-07-13T02:00:52;14.30;1.00
21259;DHT22;10787;53.364;-1.480;2023-07-13T02:03:37;14.30;1.00
21259;DHT22;10787;53.364;-1.480;2023-07-13T02:06:22;14.30;1.00
21259;DHT22;10787;53.364;-1.480;2023-07-13T02:09:06;14.20;1.00
21259;DHT22;10787;53.364;-1.480;2023-07-13T02:11:50;14.20;1.00
21259;DHT22;10787;53.364;-1.480;2023-07-13T02:14:34;14.20;1.00
21259;DHT22;10787;53.364;-1.480;2023-07-13T02:17:18;14.20;1.00
21259;DHT22;10787;53.364;-1.480;2023-07-13T02:20:03;14.10;1.00
21259;DHT22;10787;53.364;-1.480;2023-07-13T02:22:48;14.10;1.00
21259;DHT22;10787;53.364;-1.480;2023-07-13T02:25:32;14.10;1.00
21259;DHT22;10787;53.364;-1.480;2023-07-13T02:28:17;14.10;1.00
21259;DHT22;10787;53.364;-1.480;2023-07-13T02:31:07;14.10;1.00
21259;DHT22;10787;53.364;-1.480;2023-07-13T02:33:51;14.10;1.00
21259;DHT22;10787;53.364;-1.480;2023-07-13T02:36:35;14.10;1.00
21259;DHT22;10787;53.364;-1.480;2023-07-13T02:39:19;14.00;1.00
21259;DHT22;10787;53.364;-1.480;2023-07-13T02:42:04;14.10;1.00
21259;DHT22;10787;53.364;-1.480;2023-07-13T02:44:48;14.10;1.00
21259;DHT22;10787;53.364;-1.480;2023-07-13T02:47:34;14.10;1.00
21259;DHT22;10787;53.364;-1.480;2023-07-13T02:50:19;14.10;1.00
21259;DHT22;10787;53.364;-1.480;2023-07-13T02:53:03;14.10;1.00
21259;DHT22;10787;53.364;-1.480;2023-07-13T02:55:47;14.10;1.00
21259;DHT22;10787;53.364;-1.480;2023-07-13T02:58:32;14.00;1.00
21259;DHT22;10787;53.364;-1.480;2023-07-13T03:01:16;14.00;1.00
21259;DHT22;10787;53.364;-1.480;2023-07-13T03:04:03;14.00;1.00
21259;DHT22;10787;53.364;-1.480;2023-07-13T03:06:47;14.00;1.00
21259;DHT22;10787;53.364;-1.480;2023-07-13T03:09:33;13.90;1.00
21259;DHT22;10787;53.364;-1.480;2023-07-13T03:12:18;13.90;1.00
21259;DHT22;10787;53.364;-1.480;2023-07-13T03:15:02;13.80;1.00
21259;DHT22;10787;53.364;-1.480;2023-07-13T03:17:47;13.80;1.00
21259;DHT22;10787;53.364;-1.480;2023-07-13T03:20:34;13.80;1.00
21259;DHT22;10787;53.364;-1.480;2023-07-13T03:23:20;13.70;1.00
21259;DHT22;10787;53.364;-1.480;2023-07-13T03:26:07;13.70;1.00
21259;DHT22;10787;53.364;-1.480;2023-07-13T03:28:52;13.60;1.00
21259;DHT22;10787;53.364;-1.480;2023-07-13T03:31:36;13.60;1.00
21259;DHT22;10787;53.364;-1.480;2023-07-13T03:34:21;13.60;1.00
21259;DHT22;10787;53.364;-1.480;2023-07-13T03:37:05;13.50;1.00
21259;DHT22;10787;53.364;-1.480;2023-07-13T03:39:49;13.50;1.00
21259;DHT22;10787;53.364;-1.480;2023-07-13T03:42:34;13.50;1.00
21259;DHT22;10787;53.364;-1.480;2023-07-13T03:45:19;13.50;1.00
21259;DHT22;10787;53.364;-1.480;2023-07-13T03:48:04;13.40;1.00
21259;DHT22;10787;53.364;-1.480;2023-07-13T03:50:49;13.40;1.00
21259;DHT22;10787;53.364;-1.480;2023-07-13T03:53:33;13.40;1.00
21259;DHT22;10787;53.364;-1.480;2023-07-13T03:56:18;13.30;1.00
21259;DHT22;10787;53.364;-1.480;2023-07-13T03:59:03;13.30;1.00
21259;DHT22;10787;53.364;-1.480;2023-07-13T04:01:47;13.20;1.00
21259;DHT22;10787;53.364;-1.480;2023-07-13T04:04:31;13.20;1.00
21259;DHT22;10787;53.364;-1.480;2023-07-13T04:07:16;13.20;1.00
21259;DHT22;10787;53.364;-1.480;2023-07-13T04:09:59;13.20;1.00
21259;DHT22;10787;53.364;-1.480;2023-07-13T04:12:44;13.20;1.00
21259;DHT22;10787;53.364;-1.480;2023-07-13T04:15:30;13.20;1.00
21259;DHT22;10787;53.364;-1.480;2023-07-13T04:18:14;13.20;1.00
21259;DHT22;10787;53.364;-1.480;2023-07-13T04:20:59;13.20;1.00
21259;DHT22;10787;53.364;-1.480;2023-07-13T04:23:43;13.20;1.00
21259;DHT22;10787;53.364;-1.480;2023-07-13T04:26:28;13.30;1.00
21259;DHT22;10787;53.364;-1.480;2023-07-13T04:29:12;13.30;1.00
21259;DHT22;10787;53.364;-1.480;2023-07-13T04:31:56;13.40;1.00
21259;DHT22;10787;53.364;-1.480;2023-07-13T04:34:40;13.50;1.00
21259;DHT22;10787;53.364;-1.480;2023-07-13T04:37:26;13.60;1.00
21259;DHT22;10787;53.364;-1.480;2023-07-13T04:40:11;13.70;1.00
21259;DHT22;10787;53.364;-1.480;2023-07-13T04:42:55;13.70;1.00
21259;DHT22;10787;53.364;-1.480;2023-07-13T04:45:40;13.70;1.00
21259;DHT22;10787;53.364;-1.480;2023-07-13T04:48:25;13.80;1.00
21259;DHT22;10787;53.364;-1.480;2023-07-13T04:51:09;13.90;1.00
21259;DHT22;10787;53.364;-1.480;2023-07-13T04:53:54;13.90;1.00
21259;DHT22;10787;53.364;-1.480;2023-07-13T04:56:38;13.90;1.00
21259;DHT22;10787;53.364;-1.480;2023-07-13T04:59:23;14.00;1.00
21259;DHT22;10787;53.364;-1.480;2023-07-13T05:02:08;14.00;1.00
21259;DHT22;10787;53.364;-1.480;2023-07-13T05:04:52;14.00;1.00
21259;DHT22;10787;53.364;-1.480;2023-07-13T05:07:36;14.00;1.00
21259;DHT22;10787;53.364;-1.480;2023-07-13T05:10:21;14.00;1.00
21259;DHT22;10787;53.364;-1.480;2023-07-13T05:13:05;14.00;1.00
21259;DHT22;10787;53.364;-1.480;2023-07-13T05:15:57;14.00;1.00
21259;DHT22;10787;53.364;-1.480;2023-07-13T05:18:42;14.00;1.00
21259;DHT22;10787;53.364;-1.480;2023-07-13T05:21:26;14.10;1.00
21259;DHT22;10787;53.364;-1.480;2023-07-13T05:24:11;14.10;1.00
21259;DHT22;10787;53.364;-1.480;2023-07-13T05:26:56;14.20;1.00
21259;DHT22;10787;53.364;-1.480;2023-07-13T05:29:40;14.20;1.00
21259;DHT22;10787;53.364;-1.480;2023-07-13T05:32:24;14.30;1.00
21259;DHT22;10787;53.364;-1.480;2023-07-13T05:35:09;14.30;1.00
21259;DHT22;10787;53.364;-1.480;2023-07-13T05:37:53;14.30;1.00
21259;DHT22;10787;53.364;-1.480;2023-07-13T05:40:38;14.40;1.00
21259;DHT22;10787;53.364;-1.480;2023-07-13T05:43:22;14.40;1.00
21259;DHT22;10787;53.364;-1.480;2023-07-13T05:46:07;14.40;1.00
21259;DHT22;10787;53.364;-1.480;2023-07-13T05:49:00;14.40;1.00
21259;DHT22;10787;53.364;-1.480;2023-07-13T05:51:45;14.40;1.00
21259;DHT22;10787;53.364;-1.480;2023-07-13T05:54:29;14.40;1.00
21259;DHT22;10787;53.364;-1.480;2023-07-13T05:57:14;14.50;1.00
21259;DHT22;10787;53.364;-1.480;2023-07-13T05:59:58;14.50;99.90
21259;DHT22;10787;53.364;-1.480;2023-07-13T06:02:42;14.60;99.90
21259;DHT22;10787;53.364;-1.480;2023-07-13T06:05:26;14.70;99.90
21259;DHT22;10787;53.364;-1.480;2023-07-13T06:08:12;14.80;99.90
21259;DHT22;10787;53.364;-1.480;2023-07-13T06:11:23;15.10;99.90
21259;DHT22;10787;53.364;-1.480;2023-07-13T06:14:09;15.30;99.90
21259;DHT22;10787;53.364;-1.480;2023-07-13T06:16:53;15.40;99.90
21259;DHT22;10787;53.364;-1.480;2023-07-13T06:19:37;15.50;99.90
21259;DHT22;10787;53.364;-1.480;2023-07-13T06:22:22;15.50;99.90
21259;DHT22;10787;53.364;-1.480;2023-07-13T06:25:07;15.40;99.90
21259;DHT22;10787;53.364;-1.480;2023-07-13T06:27:51;15.50;99.90
21259;DHT22;10787;53.364;-1.480;2023-07-13T06:30:38;15.50;99.90
21259;DHT22;10787;53.364;-1.480;2023-07-13T06:33:23;15.60;99.90
21259;DHT22;10787;53.364;-1.480;2023-07-13T06:36:09;15.60;99.90
21259;DHT22;10787;53.364;-1.480;2023-07-13T06:38:54;15.60;99.90
21259;DHT22;10787;53.364;-1.480;2023-07-13T06:41:38;15.60;99.90
21259;DHT22;10787;53.364;-1.480;2023-07-13T06:44:22;15.50;99.90
21259;DHT22;10787;53.364;-1.480;2023-07-13T06:47:07;15.50;99.90
21259;DHT22;10787;53.364;-1.480;2023-07-13T06:49:51;15.60;99.90
21259;DHT22;10787;53.364;-1.480;2023-07-13T06:52:35;15.60;99.90
21259;DHT22;10787;53.364;-1.480;2023-07-13T06:55:19;15.60;99.90
21259;DHT22;10787;53.364;-1.480;2023-07-13T06:58:03;15.80;99.90
21259;DHT22;10787;53.364;-1.480;2023-07-13T07:00:51;16.00;99.90
21259;DHT22;10787;53.364;-1.480;2023-07-13T07:03:36;16.20;99.90
21259;DHT22;10787;53.364;-1.480;2023-07-13T07:06:21;16.40;99.90
21259;DHT22;10787;53.364;-1.480;2023-07-13T07:09:09;16.50;99.90
21259;DHT22;10787;53.364;-1.480;2023-07-13T07:11:53;16.70;99.90
21259;DHT22;10787;53.364;-1.480;2023-07-13T07:14:37;16.90;99.90
21259;DHT22;10787;53.364;-1.480;2023-07-13T07:17:21;17.00;99.90
21259;DHT22;10787;53.364;-1.480;2023-07-13T07:20:06;17.00;99.90
21259;DHT22;10787;53.364;-1.480;2023-07-13T07:22:51;16.90;99.90
21259;DHT22;10787;53.364;-1.480;2023-07-13T07:25:35;17.00;99.90
21259;DHT22;10787;53.364;-1.480;2023-07-13T07:28:21;17.00;99.90
21259;DHT22;10787;53.364;-1.480;2023-07-13T07:31:05;17.00;99.90
21259;DHT22;10787;53.364;-1.480;2023-07-13T07:33:50;17.10;99.90
21259;DHT22;10787;53.364;-1.480;2023-07-13T07:36:34;17.30;99.90
21259;DHT22;10787;53.364;-1.480;2023-07-13T07:39:18;17.40;99.90
21259;DHT22;10787;53.364;-1.480;2023-07-13T07:42:02;17.50;99.90
21259;DHT22;10787;53.364;-1.480;2023-07-13T07:44:47;17.50;99.90
21259;DHT22;10787;53.364;-1.480;2023-07-13T07:47:31;17.50;99.90
21259;DHT22;10787;53.364;-1.480;2023-07-13T07:50:15;17.50;99.90
21259;DHT22;10787;53.364;-1.480;2023-07-13T07:53:00;17.60;99.90
21259;DHT22;10787;53.364;-1.480;2023-07-13T07:55:46;17.60;99.90
21259;DHT22;10787;53.364;-1.480;2023-07-13T07:58:32;17.70;99.90
21259;DHT22;10787;53.364;-1.480;2023-07-13T08:01:16;17.60;99.90
21259;DHT22;10787;53.364;-1.480;2023-07-13T08:04:00;17.50;99.90
21259;DHT22;10787;53.364;-1.480;2023-07-13T08:06:45;17.70;99.90
21259;DHT22;10787;53.364;-1.480;2023-07-13T08:09:29;17.90;99.90
21259;DHT22;10787;53.364;-1.480;2023-07-13T08:12:16;18.20;99.90
21259;DHT22;10787;53.364;-1.480;2023-07-13T08:15:01;18.40;99.90
21259;DHT22;10787;53.364;-1.480;2023-07-13T08:17:47;18.40;99.90
21259;DHT22;10787;53.364;-1.480;2023-07-13T08:20:32;18.40;99.90
21259;DHT22;10787;53.364;-1.480;2023-07-13T08:23:17;18.30;99.90
21259;DHT22;10787;53.364;-1.480;2023-07-13T08:26:02;18.20;99.90
21259;DHT22;10787;53.364;-1.480;2023-07-13T08:28:47;18.30;99.90
21259;DHT22;10787;53.364;-1.480;2023-07-13T08:31:32;18.50;99.90
21259;DHT22;10787;53.364;-1.480;2023-07-13T08:34:16;18.50;99.90
21259;DHT22;10787;53.364;-1.480;2023-07-13T08:37:00;18.30;99.90
21259;DHT22;10787;53.364;-1.480;2023-07-13T08:39:44;18.40;99.90
21259;DHT22;10787;53.364;-1.480;2023-07-13T08:42:45;18.50;99.90
21259;DHT22;10787;53.364;-1.480;2023-07-13T08:45:43;18.60;99.90
21259;DHT22;10787;53.364;-1.480;2023-07-13T08:48:33;18.80;99.90
21259;DHT22;10787;53.364;-1.480;2023-07-13T08:54:38;18.90;99.90
21259;DHT22;10787;53.364;-1.480;2023-07-13T08:57:31;18.90;99.90
21259;DHT22;10787;53.364;-1.480;2023-07-13T09:00:17;18.90;99.90
21259;DHT22;10787;53.364;-1.480;2023-07-13T09:03:02;18.80;99.90
21259;DHT22;10787;53.364;-1.480;2023-07-13T09:05:54;18.80;99.90
21259;DHT22;10787;53.364;-1.480;2023-07-13T09:09:00;18.90;99.90
21259;DHT22;10787;53.364;-1.480;2023-07-13T09:15:27;19.10;99.90
21259;DHT22;10787;53.364;-1.480;2023-07-13T09:21:32;19.50;99.90
21259;DHT22;10787;53.364;-1.480;2023-07-13T09:27:32;19.80;99.90
21259;DHT22;10787;53.364;-1.480;2023-07-13T09:30:33;20.00;99.90
21259;DHT22;10787;53.364;-1.480;2023-07-13T09:33:19;20.00;99.90
21259;DHT22;10787;53.364;-1.480;2023-07-13T09:39:28;20.00;99.90
21259;DHT22;10787;53.364;-1.480;2023-07-13T09:42:18;20.10;99.90
21259;DHT22;10787;53.364;-1.480;2023-07-13T09:45:03;19.90;99.90
21259;DHT22;10787;53.364;-1.480;2023-07-13T09:47:59;19.70;99.90
21259;DHT22;10787;53.364;-1.480;2023-07-13T09:50:47;19.70;99.90
21259;DHT22;10787;53.364;-1.480;2023-07-13T09:53:32;19.70;99.90
21259;DHT22;10787;53.364;-1.480;2023-07-13T09:56:22;20.00;99.90
21259;DHT22;10787;53.364;-1.480;2023-07-13T09:59:19;20.10;99.90
21259;DHT22;10787;53.364;-1.480;2023-07-13T10:05:14;20.20;99.90
21259;DHT22;10787;53.364;-1.480;2023-07-13T10:07:59;20.40;99.90
21259;DHT22;10787;53.364;-1.480;2023-07-13T10:10:43;20.60;99.90
21259;DHT22;10787;53.364;-1.480;2023-07-13T10:13:32;20.80;99.90
21259;DHT22;10787;53.364;-1.480;2023-07-13T10:16:18;20.80;99.90
21259;DHT22;10787;53.364;-1.480;2023-07-13T10:19:12;20.90;99.90
21259;DHT22;10787;53.364;-1.480;2023-07-13T10:22:00;20.80;99.90
21259;DHT22;10787;53.364;-1.480;2023-07-13T10:24:45;20.90;99.90
21259;DHT22;10787;53.364;-1.480;2023-07-13T10:27:34;20.90;99.90
21259;DHT22;10787;53.364;-1.480;2023-07-13T10:30:30;21.00;99.90
21259;DHT22;10787;53.364;-1.480;2023-07-13T10:33:15;21.00;99.90
21259;DHT22;10787;53.364;-1.480;2023-07-13T10:36:12;20.90;99.90
21259;DHT22;10787;53.364;-1.480;2023-07-13T10:38:59;20.90;99.90
21259;DHT22;10787;53.364;-1.480;2023-07-13T10:41:48;20.70;99.90
21259;DHT22;10787;53.364;-1.480;2023-07-13T10:44:34;20.80;99.90
21259;DHT22;10787;53.364;-1.480;2023-07-13T10:47:19;20.80;99.90
21259;DHT22;10787;53.364;-1.480;2023-07-13T10:50:03;20.90;99.90
21259;DHT22;10787;53.364;-1.480;2023-07-13T10:52:50;21.10;99.90
21259;DHT22;10787;53.364;-1.480;2023-07-13T10:55:54;21.20;99.90
21259;DHT22;10787;53.364;-1.480;2023-07-13T10:58:40;21.20;99.90
21259;DHT22;10787;53.364;-1.480;2023-07-13T11:01:25;20.80;99.90
21259;DHT22;10787;53.364;-1.480;2023-07-13T11:04:12;20.60;99.90
21259;DHT22;10787;53.364;-1.480;2023-07-13T11:06:59;20.50;99.90
21259;DHT22;10787;53.364;-1.480;2023-07-13T11:09:59;20.60;99.90
21259;DHT22;10787;53.364;-1.480;2023-07-13T11:15:43;21.30;99.90
21259;DHT22;10787;53.364;-1.480;2023-07-13T11:18:28;21.10;99.90
21259;DHT22;10787;53.364;-1.480;2023-07-13T11:21:15;21.20;99.90
21259;DHT22;10787;53.364;-1.480;2023-07-13T11:24:17;21.40;99.90
21259;DHT22;10787;53.364;-1.480;2023-07-13T11:27:22;21.30;99.90
21259;DHT22;10787;53.364;-1.480;2023-07-13T11:36:23;22.10;99.90
21259;DHT22;10787;53.364;-1.480;2023-07-13T11:39:21;22.40;99.90
21259;DHT22;10787;53.364;-1.480;2023-07-13T11:42:12;22.40;99.90
21259;DHT22;10787;53.364;-1.480;2023-07-13T11:44:57;21.90;99.90
21259;DHT22;10787;53.364;-1.480;2023-07-13T11:47:42;22.30;99.90
21259;DHT22;10787;53.364;-1.480;2023-07-13T11:50:27;22.30;99.90
21259;DHT22;10787;53.364;-1.480;2023-07-13T11:53:11;22.60;99.90
21259;DHT22;10787;53.364;-1.480;2023-07-13T11:55:57;22.80;99.90
21259;DHT22;10787;53.364;-1.480;2023-07-13T11:58:42;23.10;99.90
21259;DHT22;10787;53.364;-1.480;2023-07-13T12:01:29;23.20;99.90
21259;DHT22;10787;53.364;-1.480;2023-07-13T12:04:27;23.60;99.90
21259;DHT22;10787;53.364;-1.480;2023-07-13T12:07:17;24.10;99.90
21259;DHT22;10787;53.364;-1.480;2023-07-13T12:12:58;25.40;99.90
21259;DHT22;10787;53.364;-1.480;2023-07-13T12:15:44;26.00;99.90
21259;DHT22;10787;53.364;-1.480;2023-07-13T12:18:31;26.80;99.90
21259;DHT22;10787;53.364;-1.480;2023-07-13T12:21:19;27.30;99.90
21259;DHT22;10787;53.364;-1.480;2023-07-13T12:24:04;26.70;99.90
21259;DHT22;10787;53.364;-1.480;2023-07-13T12:27:03;26.60;99.90
21259;DHT22;10787;53.364;-1.480;2023-07-13T12:30:26;26.70;99.90
21259;DHT22;10787;53.364;-1.480;2023-07-13T12:33:13;26.90;99.90
21259;DHT22;10787;53.364;-1.480;2023-07-13T12:36:01;26.80;99.90
21259;DHT22;10787;53.364;-1.480;2023-07-13T12:38:46;27.40;99.90
21259;DHT22;10787;53.364;-1.480;2023-07-13T12:41:32;27.00;99.90
21259;DHT22;10787;53.364;-1.480;2023-07-13T12:44:22;25.90;99.90
21259;DHT22;10787;53.364;-1.480;2023-07-13T12:47:13;25.50;99.90
21259;DHT22;10787;53.364;-1.480;2023-07-13T12:49:59;25.20;99.90
21259;DHT22;10787;53.364;-1.480;2023-07-13T12:52:51;25.70;99.90
21259;DHT22;10787;53.364;-1.480;2023-07-13T12:55:46;26.60;99.90
21259;DHT22;10787;53.364;-1.480;2023-07-13T12:58:41;28.20;99.90
21259;DHT22;10787;53.364;-1.480;2023-07-13T13:01:29;28.30;99.90
21259;DHT22;10787;53.364;-1.480;2023-07-13T13:04:15;27.30;99.90
21259;DHT22;10787;53.364;-1.480;2023-07-13T13:07:08;26.70;99.90
21259;DHT22;10787;53.364;-1.480;2023-07-13T13:09:53;25.60;99.90
21259;DHT22;10787;53.364;-1.480;2023-07-13T13:12:39;25.90;99.90
21259;DHT22;10787;53.364;-1.480;2023-07-13T13:15:25;26.90;99.90
21259;DHT22;10787;53.364;-1.480;2023-07-13T13:18:20;27.60;99.90
21259;DHT22;10787;53.364;-1.480;2023-07-13T13:21:05;27.60;99.90
21259;DHT22;10787;53.364;-1.480;2023-07-13T13:23:50;26.90;99.90
21259;DHT22;10787;53.364;-1.480;2023-07-13T13:26:36;26.40;99.90
21259;DHT22;10787;53.364;-1.480;2023-07-13T13:29:22;25.80;99.90
21259;DHT22;10787;53.364;-1.480;2023-07-13T13:32:12;25.30;99.90
21259;DHT22;10787;53.364;-1.480;2023-07-13T13:34:57;24.70;99.90
21259;DHT22;10787;53.364;-1.480;2023-07-13T13:37:42;24.70;99.90
21259;DHT22;10787;53.364;-1.480;2023-07-13T13:40:26;24.40;99.90
21259;DHT22;10787;53.364;-1.480;2023-07-13T13:43:20;24.30;99.90
21259;DHT22;10787;53.364;-1.480;2023-07-13T13:46:13;24.60;99.90
21259;DHT22;10787;53.364;-1.480;2023-07-13T13:48:58;25.20;99.90
21259;DHT22;10787;53.364;-1.480;2023-07-13T13:51:42;25.40;99.90
21259;DHT22;10787;53.364;-1.480;2023-07-13T13:54:27;25.70;99.90
21259;DHT22;10787;53.364;-1.480;2023-07-13T13:57:12;25.60;99.90
21259;DHT22;10787;53.364;-1.480;2023-07-13T13:59:56;25.80;99.90
21259;DHT22;10787;53.364;-1.480;2023-07-13T14:02:46;26.50;99.90
21259;DHT22;10787;53.364;-1.480;2023-07-13T14:05:31;26.90;99.90
21259;DHT22;10787;53.364;-1.480;2023-07-13T14:08:18;27.70;99.90
21259;DHT22;10787;53.364;-1.480;2023-07-13T14:11:03;27.70;99.90
21259;DHT22;10787;53.364;-1.480;2023-07-13T14:13:53;28.10;99.90
21259;DHT22;10787;53.364;-1.480;2023-07-13T14:16:39;28.10;99.90
21259;DHT22;10787;53.364;-1.480;2023-07-13T14:19:26;29.10;99.90
21259;DHT22;10787;53.364;-1.480;2023-07-13T14:22:12;29.70;99.90
21259;DHT22;10787;53.364;-1.480;2023-07-13T14:24:56;29.50;99.90
21259;DHT22;10787;53.364;-1.480;2023-07-13T14:27:44;29.10;99.90
21259;DHT22;10787;53.364;-1.480;2023-07-13T14:30:28;28.10;99.90
21259;DHT22;10787;53.364;-1.480;2023-07-13T14:33:13;27.50;99.90
21259;DHT22;10787;53.364;-1.480;2023-07-13T14:35:57;26.90;99.90
21259;DHT22;10787;53.364;-1.480;2023-07-13T14:38:42;26.30;82.10
21259;DHT22;10787;53.364;-1.480;2023-07-13T14:41:30;26.20;99.90
21259;DHT22;10787;53.364;-1.480;2023-07-13T14:44:15;25.80;99.90
21259;DHT22;10787;53.364;-1.480;2023-07-13T14:49:48;25.00;74.90
21259;DHT22;10787;53.364;-1.480;2023-07-13T14:52:32;25.10;57.60
21259;DHT22;10787;53.364;-1.480;2023-07-13T14:55:18;24.60;67.70
21259;DHT22;10787;53.364;-1.480;2023-07-13T14:58:02;24.70;88.50
21259;DHT22;10787;53.364;-1.480;2023-07-13T15:00:46;24.70;70.10
21259;DHT22;10787;53.364;-1.480;2023-07-13T15:03:32;24.50;70.90
21259;DHT22;10787;53.364;-1.480;2023-07-13T15:06:17;24.70;91.30
21259;DHT22;10787;53.364;-1.480;2023-07-13T15:09:03;24.70;92.20
21259;DHT22;10787;53.364;-1.480;2023-07-13T15:11:48;24.50;90.30
21259;DHT22;10787;53.364;-1.480;2023-07-13T15:14:32;24.50;76.90
21259;DHT22;10787;53.364;-1.480;2023-07-13T15:17:36;24.90;91.90
21259;DHT22;10787;53.364;-1.480;2023-07-13T15:20:33;26.00;99.90
21259;DHT22;10787;53.364;-1.480;2023-07-13T15:23:19;27.20;99.90
21259;DHT22;10787;53.364;-1.480;2023-07-13T15:26:04;27.30;99.90
21259;DHT22;10787;53.364;-1.480;2023-07-13T15:28:48;28.30;99.90
21259;DHT22;10787;53.364;-1.480;2023-07-13T15:31:33;29.60;99.90
21259;DHT22;10787;53.364;-1.480;2023-07-13T15:34:23;30.50;99.90
21259;DHT22;10787;53.364;-1.480;2023-07-13T15:37:14;30.80;99.90
21259;DHT22;10787;53.364;-1.480;2023-07-13T15:39:59;30.70;99.90
21259;DHT22;10787;53.364;-1.480;2023-07-13T15:42:44;30.60;99.90
21259;DHT22;10787;53.364;-1.480;2023-07-13T15:45:29;30.70;99.90
21259;DHT22;10787;53.364;-1.480;2023-07-13T15:51:03;30.50;99.90
21259;DHT22;10787;53.364;-1.480;2023-07-13T15:53:48;30.80;99.90
21259;DHT22;10787;53.364;-1.480;2023-07-13T15:56:35;31.10;99.90
21259;DHT22;10787;53.364;-1.480;2023-07-13T15:59:20;31.10;99.90
21259;DHT22;10787;53.364;-1.480;2023-07-13T16:02:19;31.40;99.90
21259;DHT22;10787;53.364;-1.480;2023-07-13T16:05:04;31.10;99.90
21259;DHT22;10787;53.364;-1.480;2023-07-13T16:07:51;31.30;99.90
21259;DHT22;10787;53.364;-1.480;2023-07-13T16:10:37;31.50;99.90
21259;DHT22;10787;53.364;-1.480;2023-07-13T16:13:24;30.90;99.90
21259;DHT22;10787;53.364;-1.480;2023-07-13T16:16:11;30.70;99.90
21259;DHT22;10787;53.364;-1.480;2023-07-13T16:18:57;29.70;99.90
21259;DHT22;10787;53.364;-1.480;2023-07-13T16:21:45;28.60;99.90
21259;DHT22;10787;53.364;-1.480;2023-07-13T16:24:31;28.10;99.90
21259;DHT22;10787;53.364;-1.480;2023-07-13T16:27:15;27.80;99.90
21259;DHT22;10787;53.364;-1.480;2023-07-13T16:29:59;28.10;99.90
21259;DHT22;10787;53.364;-1.480;2023-07-13T16:32:44;28.30;99.90
21259;DHT22;10787;53.364;-1.480;2023-07-13T16:35:29;28.50;99.90
21259;DHT22;10787;53.364;-1.480;2023-07-13T16:38:16;28.30;99.90
21259;DHT22;10787;53.364;-1.480;2023-07-13T16:41:01;27.70;99.90
21259;DHT22;10787;53.364;-1.480;2023-07-13T16:43:46;27.30;99.90
21259;DHT22;10787;53.364;-1.480;2023-07-13T16:46:30;27.20;99.90
21259;DHT22;10787;53.364;-1.480;2023-07-13T16:49:30;26.80;99.90
21259;DHT22;10787;53.364;-1.480;2023-07-13T16:52:17;26.60;99.90
21259;DHT22;10787;53.364;-1.480;2023-07-13T16:55:05;26.40;99.90
21259;DHT22;10787;53.364;-1.480;2023-07-13T16:57:49;26.20;99.90
21259;DHT22;10787;53.364;-1.480;2023-07-13T17:00:33;26.60;99.90
21259;DHT22;10787;53.364;-1.480;2023-07-13T17:03:20;26.70;99.90
21259;DHT22;10787;53.364;-1.480;2023-07-13T17:06:21;26.90;99.90
21259;DHT22;10787;53.364;-1.480;2023-07-13T17:09:11;26.60;99.90
21259;DHT22;10787;53.364;-1.480;2023-07-13T17:11:57;26.00;99.90
21259;DHT22;10787;53.364;-1.480;2023-07-13T17:14:41;26.40;99.90
21259;DHT22;10787;53.364;-1.480;2023-07-13T17:17:36;26.90;99.90
21259;DHT22;10787;53.364;-1.480;2023-07-13T17:20:29;26.70;99.90
21259;DHT22;10787;53.364;-1.480;2023-07-13T17:23:21;26.90;99.90
21259;DHT22;10787;53.364;-1.480;2023-07-13T17:26:08;26.50;99.90
21259;DHT22;10787;53.364;-1.480;2023-07-13T17:28:53;26.40;99.90
21259;DHT22;10787;53.364;-1.480;2023-07-13T17:31:38;26.50;99.90
21259;DHT22;10787;53.364;-1.480;2023-07-13T17:34:23;26.30;99.90
21259;DHT22;10787;53.364;-1.480;2023-07-13T17:37:13;27.10;99.90
21259;DHT22;10787;53.364;-1.480;2023-07-13T17:40:00;27.80;99.90
21259;DHT22;10787;53.364;-1.480;2023-07-13T17:42:45;28.40;99.90
21259;DHT22;10787;53.364;-1.480;2023-07-13T17:45:30;28.50;99.90
21259;DHT22;10787;53.364;-1.480;2023-07-13T17:48:15;29.00;99.90
21259;DHT22;10787;53.364;-1.480;2023-07-13T17:51:00;29.20;99.90
21259;DHT22;10787;53.364;-1.480;2023-07-13T17:53:44;29.90;99.90
21259;DHT22;10787;53.364;-1.480;2023-07-13T17:56:28;29.90;99.90
21259;DHT22;10787;53.364;-1.480;2023-07-13T17:59:16;29.60;99.90